Time;durP1;ratioP1;P1;durP2;ratioP2;P2;SDS_P1;SDS_P2;PMS_P1;PMS_P2;Temp;Humidity;BMP_temperature;BMP_pressure;BME280_temperature;BME280_humidity;BME280_pressure;Samples;Min_cycle;Max_cycle;Signal;HPM_P1;HPM_P2
2021/05/25 00:01:20;;;;;;;6.68;3.00;;;;;;;7.30;82.72;98909.41;5013218;28;20042;-60
2021/05/25 00:03:45;;;;;;;5.78;1.95;;;;;;;7.18;82.82;98906.72;5014189;28;20026;-60
2021/05/25 00:06:10;;;;;;;4.45;2.25;;;;;;;7.24;82.92;98907.63;5013246;28;20368;-59
2021/05/25 00:08:36;;;;;;;10.10;2.40;;;;;;;7.14;82.40;98905.56;5013635;28;20030;-59
2021/05/25 00:11:01;;;;;;;4.43;2.55;;;;;;;7.09;82.10;98906.22;5013026;28;20045;-59
2021/05/25 00:13:27;;;;;;;7.05;2.47;;;;;;;7.08;82.13;98909.13;4996137;28;20034;-60
2021/05/25 00:15:53;;;;;;;6.40;2.45;;;;;;;7.10;82.03;98910.50;4995502;28;20088;-59
2021/05/25 00:18:19;;;;;;;7.25;2.45;;;;;;;7.02;81.12;98905.50;5013365;28;20057;-60
2021/05/25 00:20:44;;;;;;;4.90;2.40;;;;;;;6.95;81.31;98901.31;5012953;28;20042;-59
2021/05/25 00:23:10;;;;;;;6.68;2.42;;;;;;;6.81;81.70;98911.34;5013670;28;20503;-59
2021/05/25 00:25:35;;;;;;;4.82;2.47;;;;;;;6.79;82.32;98913.41;5012843;28;20399;-59
2021/05/25 00:28:00;;;;;;;4.15;2.30;;;;;;;6.78;82.42;98917.91;5013416;28;20041;-61
2021/05/25 00:30:26;;;;;;;5.60;2.40;;;;;;;6.84;82.07;98925.03;5012783;28;20034;-60
2021/05/25 00:32:51;;;;;;;7.57;2.63;;;;;;;6.88;82.55;98917.38;5013266;28;20030;-59
2021/05/25 00:35:17;;;;;;;6.80;2.15;;;;;;;6.92;82.11;98923.91;5012797;28;20466;-60
2021/05/25 00:37:43;;;;;;;7.10;2.55;;;;;;;6.94;82.26;98921.81;5013383;28;20022;-59
2021/05/25 00:40:09;;;;;;;4.18;2.33;;;;;;;6.96;81.88;98921.59;5012894;28;20025;-60
2021/05/25 00:42:35;;;;;;;9.80;2.40;;;;;;;7.08;81.96;98917.91;5012351;28;20025;-59
2021/05/25 00:45:01;;;;;;;6.57;2.97;;;;;;;7.08;81.42;98920.56;5012799;28;20034;-59
2021/05/25 00:47:30;;;;;;;7.65;2.50;;;;;;;7.00;81.78;98922.78;5013213;28;20049;-61
2021/05/25 00:49:55;;;;;;;5.20;2.30;;;;;;;7.02;81.92;98915.38;5013058;28;20022;-59
2021/05/25 00:52:21;;;;;;;7.43;2.53;;;;;;;7.09;81.47;98922.22;5012531;28;20042;-59
2021/05/25 00:54:47;;;;;;;4.13;2.25;;;;;;;7.08;81.53;98912.59;5013033;28;20030;-59
2021/05/25 00:57:12;;;;;;;5.55;2.63;;;;;;;7.09;80.62;98913.41;5030438;28;20049;-58
2021/05/25 00:59:38;;;;;;;5.70;2.20;;;;;;;7.13;81.22;98915.38;5015012;28;20041;-59
2021/05/25 01:02:03;;;;;;;4.72;2.10;;;;;;;7.10;80.57;98910.50;5048419;28;20044;-59
2021/05/25 01:04:30;;;;;;;7.15;2.70;;;;;;;7.18;80.22;98905.91;5052537;28;20062;-59
2021/05/25 01:06:55;;;;;;;4.13;2.03;;;;;;;7.19;80.38;98910.19;5052158;28;20485;-59
2021/05/25 01:09:20;;;;;;;4.18;2.20;;;;;;;7.08;80.99;98909.91;5052698;28;20036;-59
2021/05/25 01:11:46;;;;;;;6.45;2.25;;;;;;;7.08;81.10;98912.59;5051943;28;20030;-59
2021/05/25 01:14:12;;;;;;;4.40;2.10;;;;;;;7.17;80.87;98921.09;5034794;28;20041;-59
2021/05/25 01:16:38;;;;;;;6.18;2.60;;;;;;;7.11;80.78;98908.66;5051934;28;20075;-59
2021/05/25 01:19:03;;;;;;;3.65;2.17;;;;;;;7.16;80.83;98913.31;5034524;28;20024;-58
2021/05/25 01:21:29;;;;;;;5.63;2.28;;;;;;;7.15;81.05;98917.03;5051921;28;20037;-59
2021/05/25 01:23:54;;;;;;;8.52;2.38;;;;;;;7.08;81.28;98912.59;5052417;28;20025;-59
2021/05/25 01:26:20;;;;;;;6.07;2.50;;;;;;;7.22;80.77;98912.41;5051989;28;20056;-59
2021/05/25 01:28:46;;;;;;;6.07;2.42;;;;;;;7.26;80.48;98908.22;5052493;28;20450;-59
2021/05/25 01:31:11;;;;;;;6.25;2.30;;;;;;;7.29;80.65;98907.78;5051745;28;20045;-59
2021/05/25 01:33:37;;;;;;;8.52;2.30;;;;;;;7.22;80.58;98915.06;5052196;28;20044;-59
2021/05/25 01:36:07;;;;;;;7.57;2.45;;;;;;;7.18;80.83;98911.22;5052175;28;20044;-59
2021/05/25 01:38:33;;;;;;;6.18;2.40;;;;;;;7.18;80.99;98911.22;5052348;28;20132;-59
2021/05/25 01:40:59;;;;;;;4.20;2.08;;;;;;;7.15;80.92;98911.69;5051812;28;20120;-59
2021/05/25 01:43:24;;;;;;;7.80;2.28;;;;;;;7.13;80.96;98904.72;5052410;28;20348;-59
2021/05/25 01:45:50;;;;;;;5.40;2.55;;;;;;;7.09;80.99;98908.91;5051743;28;20040;-59
2021/05/25 01:48:15;;;;;;;4.68;2.28;;;;;;;7.14;81.28;98913.56;5052182;28;20021;-60
2021/05/25 01:50:41;;;;;;;7.68;2.47;;;;;;;7.07;80.96;98916.31;5051767;28;20036;-60
2021/05/25 01:53:07;;;;;;;5.32;2.20;;;;;;;7.05;81.23;98913.03;5052822;28;20421;-58
2021/05/25 01:55:39;;;;;;;7.32;2.40;;;;;;;7.05;83.03;98906.91;5055284;28;20033;-59
2021/05/25 01:58:06;;;;;;;6.43;2.20;;;;;;;7.02;81.64;98923.34;5055791;28;20013;-59
2021/05/25 02:00:31;;;;;;;4.63;2.10;;;;;;;6.99;80.99;98927.28;5055228;28;20128;-59
2021/05/25 02:02:57;;;;;;;3.88;2.17;;;;;;;6.99;81.40;98924.63;5037720;28;20025;-58
2021/05/25 02:05:22;;;;;;;6.25;2.58;;;;;;;7.00;81.13;98920.91;5055359;28;20056;-58
2021/05/25 02:07:52;;;;;;;10.02;2.30;;;;;;;6.99;81.40;98929.97;5037703;28;20577;-59
2021/05/25 02:10:31;;;;;;;5.18;2.10;;;;;;;6.97;81.75;98926.69;5055050;28;20462;-60
2021/05/25 02:12:59;;;;;;;7.95;2.20;;;;;;;6.90;81.80;98925.97;5055446;28;20041;-60
2021/05/25 02:15:24;;;;;;;6.40;2.28;;;;;;;6.92;81.62;98929.22;5055063;28;20439;-58
2021/05/25 02:17:50;;;;;;;4.78;2.00;;;;;;;6.94;81.66;98928.97;5037281;28;20056;-58
2021/05/25 02:20:15;;;;;;;5.28;2.10;;;;;;;6.94;81.14;98924.50;5054914;28;20029;-59
2021/05/25 02:22:41;;;;;;;8.52;2.10;;;;;;;6.90;80.95;98910.00;5055471;28;20029;-58
2021/05/25 02:25:06;;;;;;;4.15;2.05;;;;;;;6.85;81.15;98921.31;5036967;28;20121;-59
2021/05/25 02:27:32;;;;;;;5.57;2.08;;;;;;;6.90;80.94;98920.66;5055263;28;20014;-58
2021/05/25 02:29:57;;;;;;;4.38;1.90;;;;;;;6.90;80.61;98920.66;5037233;28;20052;-58
2021/05/25 02:32:23;;;;;;;6.22;2.08;;;;;;;6.85;81.01;98921.31;5054566;28;20037;-58
2021/05/25 02:34:48;;;;;;;3.72;1.88;;;;;;;6.93;80.77;98912.19;5055209;28;20386;-58
2021/05/25 02:37:13;;;;;;;7.15;1.98;;;;;;;6.96;80.49;98909.06;5036603;28;20036;-58
2021/05/25 02:39:39;;;;;;;5.22;1.92;;;;;;;6.96;80.35;98919.72;5054921;28;20083;-59
2021/05/25 02:42:04;;;;;;;4.85;1.80;;;;;;;6.86;80.71;98922.13;5036766;28;20041;-58
2021/05/25 02:44:30;;;;;;;5.28;2.17;;;;;;;6.87;80.95;98916.56;5054755;28;20079;-58
2021/05/25 02:46:55;;;;;;;5.85;2.00;;;;;;;6.94;80.44;98931.66;5054346;28;20037;-58
2021/05/25 02:49:21;;;;;;;6.03;1.90;;;;;;;6.93;79.85;98922.84;5054891;28;20036;-58
2021/05/25 02:51:46;;;;;;;8.45;2.20;;;;;;;6.93;80.17;98930.84;5054425;28;20045;-58
2021/05/25 02:54:11;;;;;;;5.75;1.88;;;;;;;6.89;80.22;98924.34;5054811;28;20041;-58
2021/05/25 02:56:37;;;;;;;6.50;2.15;;;;;;;6.94;80.05;98932.47;5054227;28;20093;-58
2021/05/25 02:59:02;;;;;;;5.57;2.13;;;;;;;6.88;80.58;98936.03;5054492;28;20378;-59
2021/05/25 03:01:28;;;;;;;5.95;1.98;;;;;;;7.00;80.95;98938.75;5054108;28;20037;-59
2021/05/25 03:03:53;;;;;;;5.00;1.90;;;;;;;6.91;80.94;98938.25;5054377;28;20033;-58
2021/05/25 03:06:19;;;;;;;7.20;2.72;;;;;;;6.88;80.59;98934.19;5052834;28;20026;-58
2021/05/25 03:08:44;;;;;;;2.88;1.80;;;;;;;6.80;80.66;98937.16;5054278;28;20033;-59
2021/05/25 03:11:10;;;;;;;3.65;2.00;;;;;;;6.77;81.29;98934.97;5053830;28;20040;-58
2021/05/25 03:13:35;;;;;;;3.78;1.95;;;;;;;6.79;80.87;98937.38;5054182;28;20032;-59
2021/05/25 03:16:00;;;;;;;5.82;2.03;;;;;;;6.86;80.72;98941.59;5053959;28;20040;-58
2021/05/25 03:18:26;;;;;;;7.65;2.25;;;;;;;6.74;81.96;98948.72;5054100;28;20514;-60
2021/05/25 03:20:51;;;;;;;6.60;2.10;;;;;;;6.70;82.46;98943.03;5035835;28;20033;-60
2021/05/25 03:23:17;;;;;;;3.95;1.80;;;;;;;6.62;83.10;98946.00;5036312;28;20025;-60
2021/05/25 03:25:43;;;;;;;4.15;1.98;;;;;;;6.57;84.33;98948.53;5053674;28;20057;-58
2021/05/25 03:28:08;;;;;;;5.30;2.15;;;;;;;6.55;84.89;98947.91;5036265;28;20023;-58
2021/05/25 03:30:35;;;;;;;4.88;1.98;;;;;;;6.52;84.83;98948.38;5053698;28;20090;-58
2021/05/25 03:33:01;;;;;;;6.53;2.22;;;;;;;6.50;84.90;98949.63;5053717;28;20459;-59
2021/05/25 03:35:26;;;;;;;5.65;2.05;;;;;;;6.57;84.09;98945.84;5053340;28;20047;-58
2021/05/25 03:37:52;;;;;;;6.15;2.13;;;;;;;6.58;83.83;98957.31;5053828;28;20095;-58
2021/05/25 03:40:18;;;;;;;12.13;2.40;;;;;;;6.55;84.61;98945.25;5053411;28;20029;-59
2021/05/25 03:42:48;;;;;;;3.85;1.90;;;;;;;6.52;83.49;98932.41;5053540;28;20025;-58
2021/05/25 03:45:13;;;;;;;4.55;2.00;;;;;;;6.52;84.37;98935.06;5053511;28;20143;-59
2021/05/25 03:47:39;;;;;;;5.53;2.20;;;;;;;6.51;84.64;98930.75;5053691;28;20486;-58
2021/05/25 03:50:08;;;;;;;3.50;2.00;;;;;;;6.57;83.29;98937.88;5053251;28;20348;-59
2021/05/25 03:52:44;;;;;;;5.75;2.00;;;;;;;6.67;82.88;98932.81;5053622;28;20028;-59
2021/05/25 03:55:20;;;;;;;4.90;2.00;;;;;;;6.61;82.70;98933.69;5053249;28;20423;-60
2021/05/25 04:00:13;;;;;;;3.42;1.90;;;;;;;6.62;83.07;98939.88;5035199;28;20028;-59
2021/05/25 04:02:38;;;;;;;3.90;1.95;;;;;;;6.57;82.76;98931.72;5053471;28;20463;-59
2021/05/25 04:05:05;;;;;;;4.18;1.88;;;;;;;6.56;82.71;98930.91;5053184;28;20108;-60
2021/05/25 04:07:30;;;;;;;3.78;1.90;;;;;;;6.63;82.25;98936.16;5053186;28;20025;-59
2021/05/25 04:09:55;;;;;;;7.80;2.17;;;;;;;6.61;82.52;98927.56;5035362;28;20532;-59
2021/05/25 04:12:21;;;;;;;5.18;2.05;;;;;;;6.56;82.80;98930.91;5052864;28;20052;-60
2021/05/25 04:14:46;;;;;;;5.75;1.90;;;;;;;6.56;82.93;98941.53;5035401;28;20051;-60
2021/05/25 04:17:12;;;;;;;3.83;1.90;;;;;;;6.55;83.46;98941.78;5034396;28;20433;-59
2021/05/25 04:19:37;;;;;;;7.25;2.13;;;;;;;6.52;83.25;98935.06;5018898;28;20040;-61
2021/05/25 04:22:02;;;;;;;4.65;1.77;;;;;;;6.56;83.24;98938.88;5052725;28;20067;-60
2021/05/25 04:24:28;;;;;;;7.60;1.85;;;;;;;6.57;82.81;98943.19;5052983;28;20025;-59
2021/05/25 04:26:53;;;;;;;7.10;2.03;;;;;;;6.60;83.57;98947.25;5034881;28;20037;-59
2021/05/25 04:29:19;;;;;;;4.63;2.00;;;;;;;6.58;83.53;98939.47;5052952;28;20029;-60
2021/05/25 04:31:44;;;;;;;4.75;2.00;;;;;;;6.58;83.29;98949.31;5052490;28;20059;-60
2021/05/25 04:34:09;;;;;;;5.15;2.42;;;;;;;6.56;82.93;98951.38;5052913;28;20403;-60
2021/05/25 04:36:35;;;;;;;3.17;1.95;;;;;;;6.61;82.81;98954.19;5052451;28;20033;-59
2021/05/25 04:39:00;;;;;;;4.80;1.63;;;;;;;6.58;81.87;98958.13;5018524;28;20067;-60
2021/05/25 04:41:27;;;;;;;4.00;1.80;;;;;;;6.56;82.30;98968.19;5052620;28;20029;-60
2021/05/25 04:43:53;;;;;;;3.30;1.73;;;;;;;6.58;82.50;98963.44;5052938;28;20032;-59
2021/05/25 04:46:18;;;;;;;4.40;1.52;;;;;;;6.64;81.92;98970.56;5052489;28;20406;-59
2021/05/25 04:48:43;;;;;;;5.65;1.80;;;;;;;6.72;82.67;98980.09;5034770;28;20463;-59
2021/05/25 04:51:09;;;;;;;3.38;1.63;;;;;;;6.68;82.39;98981.56;5034374;28;20431;-59
2021/05/25 04:53:34;;;;;;;5.43;1.60;;;;;;;6.64;82.88;98985.69;5052474;28;20033;-59
2021/05/25 04:56:00;;;;;;;3.95;1.63;;;;;;;6.69;82.61;98989.34;5052171;28;20037;-59
2021/05/25 04:58:25;;;;;;;3.25;1.65;;;;;;;6.62;82.77;98993.94;5052556;28;20029;-59
2021/05/25 05:00:51;;;;;;;2.83;1.67;;;;;;;6.73;82.31;98986.22;5052168;28;20048;-59
2021/05/25 05:03:16;;;;;;;4.32;2.15;;;;;;;6.59;82.89;98999.72;5052832;28;20067;-60
2021/05/25 05:05:42;;;;;;;2.03;1.33;;;;;;;6.66;82.92;98989.78;5034380;28;20426;-59
2021/05/25 05:08:07;;;;;;;2.85;1.65;;;;;;;6.72;82.46;98992.59;5052666;28;20029;-60
2021/05/25 05:10:33;;;;;;;5.78;2.00;;;;;;;6.96;82.67;98994.34;5052341;28;20037;-60
2021/05/25 05:12:58;;;;;;;3.50;1.98;;;;;;;7.15;81.91;98992.47;5052112;28;20041;-60
2021/05/25 05:15:24;;;;;;;3.80;1.83;;;;;;;7.29;81.99;98993.09;5052097;28;20053;-60
2021/05/25 05:17:50;;;;;;;6.85;1.88;;;;;;;7.82;79.46;98999.50;5052478;28;20068;-60
2021/05/25 05:20:15;;;;;;;4.68;1.73;;;;;;;7.23;80.98;99005.47;5052289;28;20035;-61
2021/05/25 05:22:41;;;;;;;8.05;1.65;;;;;;;6.98;81.13;98994.94;5052562;28;20021;-60
2021/05/25 05:25:07;;;;;;;3.25;1.30;;;;;;;6.91;80.28;99008.34;5052065;28;20024;-59
2021/05/25 05:27:33;;;;;;;3.45;1.60;;;;;;;6.92;81.22;99003.84;5052708;28;20025;-59
2021/05/25 05:29:58;;;;;;;1.77;1.45;;;;;;;6.84;82.22;99012.94;5056591;28;20032;-59
2021/05/25 05:32:23;;;;;;;3.25;1.70;;;;;;;6.64;83.19;99002.50;5055883;28;20052;-60
2021/05/25 05:34:49;;;;;;;4.93;1.70;;;;;;;6.91;82.43;99002.19;5056436;28;20495;-59
2021/05/25 05:37:14;;;;;;;9.75;2.00;;;;;;;7.19;82.12;98998.13;5037919;28;20399;-59
2021/05/25 05:39:40;;;;;;;2.72;1.75;;;;;;;7.02;81.66;98996.13;5056727;28;20013;-59
2021/05/25 05:42:06;;;;;;;3.78;1.80;;;;;;;7.12;81.84;99003.56;5055934;28;20448;-59
2021/05/25 05:44:31;;;;;;;4.25;1.80;;;;;;;7.12;81.21;99007.03;5056493;28;20552;-59
2021/05/25 05:46:56;;;;;;;2.97;1.65;;;;;;;7.10;82.09;99006.47;5038051;28;20041;-59
2021/05/25 05:49:23;;;;;;;3.88;1.80;;;;;;;7.13;81.04;99006.00;5038433;28;20021;-59
2021/05/25 05:51:49;;;;;;;6.03;1.80;;;;;;;7.12;81.33;99012.38;5055520;28;20060;-59
2021/05/25 05:54:16;;;;;;;2.75;1.67;;;;;;;7.24;80.64;99006.25;5056616;28;20040;-59
2021/05/25 05:56:41;;;;;;;2.65;1.60;;;;;;;7.44;79.42;99014.00;5038189;28;20087;-59
2021/05/25 05:59:07;;;;;;;2.47;1.60;;;;;;;7.96;78.71;99016.88;5056198;28;20021;-59
2021/05/25 06:01:32;;;;;;;3.40;1.73;;;;;;;8.42;77.97;99002.78;5005034;28;20040;-59
2021/05/25 06:03:58;;;;;;;5.45;1.95;;;;;;;9.93;72.31;99006.13;5055990;28;20520;-59
2021/05/25 06:06:23;;;;;;;4.95;1.80;;;;;;;8.91;74.45;99015.00;5055516;28;20033;-59
2021/05/25 06:08:49;;;;;;;3.50;1.48;;;;;;;8.87;76.80;99020.03;5055735;28;20032;-59
2021/05/25 06:11:14;;;;;;;2.10;1.40;;;;;;;7.96;78.51;99009.72;5020839;28;20037;-59
2021/05/25 06:13:39;;;;;;;7.57;1.85;;;;;;;7.94;78.91;99006.47;5055745;28;20425;-59
2021/05/25 06:16:06;;;;;;;3.20;2.00;;;;;;;7.74;79.73;99000.63;5055079;28;20470;-59
2021/05/25 06:18:33;;;;;;;3.10;1.75;;;;;;;7.85;79.24;99023.84;5055563;28;20116;-59
2021/05/25 06:21:00;;;;;;;3.40;1.75;;;;;;;7.62;80.21;99005.94;5055108;28;20091;-59
2021/05/25 06:23:25;;;;;;;3.80;1.50;;;;;;;7.68;79.94;99017.53;5055412;28;20052;-59
2021/05/25 06:25:51;;;;;;;4.32;1.50;;;;;;;7.65;79.03;99018.81;5036892;28;20044;-59
2021/05/25 06:28:16;;;;;;;2.50;1.40;;;;;;;7.67;80.65;99015.94;5055539;28;20112;-59
2021/05/25 06:30:42;;;;;;;4.03;1.40;;;;;;;7.52;80.25;99011.81;5055236;28;20041;-59
2021/05/25 06:33:07;;;;;;;1.55;1.30;;;;;;;7.57;80.98;99017.28;5055285;28;20450;-61
2021/05/25 06:35:34;;;;;;;1.30;1.20;;;;;;;7.31;81.76;99018.50;5054827;28;20033;-61
2021/05/25 06:37:59;;;;;;;1.98;1.58;;;;;;;7.41;83.55;99017.91;5055580;28;20032;-59
2021/05/25 06:40:25;;;;;;;1.77;1.20;;;;;;;7.16;82.81;99014.59;5054676;28;20025;-59
2021/05/25 06:42:50;;;;;;;1.83;1.30;;;;;;;7.07;83.71;99027.44;5055268;28;20108;-59
2021/05/25 06:45:16;;;;;;;1.30;1.20;;;;;;;7.00;84.25;99024.03;5054533;28;20025;-59
2021/05/25 06:47:42;;;;;;;2.38;1.50;;;;;;;7.16;84.36;99027.91;5055105;28;20053;-59
2021/05/25 06:50:08;;;;;;;3.05;1.35;;;;;;;7.15;84.54;99031.63;5055072;28;20029;-59
2021/05/25 06:52:33;;;;;;;2.80;1.50;;;;;;;7.26;83.86;99036.19;5054869;28;20025;-62
2021/05/25 06:55:00;;;;;;;2.47;1.40;;;;;;;7.16;85.10;99036.72;5055501;28;20039;-60
2021/05/25 06:57:26;;;;;;;2.40;1.30;;;;;;;7.24;84.57;99039.09;5075612;28;20132;-61
2021/05/25 06:59:52;;;;;;;3.15;1.30;;;;;;;7.36;83.99;99041.78;5075443;28;20100;-61
2021/05/25 07:02:17;;;;;;;1.45;1.35;;;;;;;7.78;82.32;99049.81;5040185;28;20039;-61
2021/05/25 07:04:43;;;;;;;1.25;1.13;;;;;;;8.00;80.86;99047.44;5074718;28;20165;-61
2021/05/25 07:07:08;;;;;;;1.70;1.33;;;;;;;7.90;80.38;99050.66;5074252;28;20037;-59
2021/05/25 07:09:34;;;;;;;1.42;1.30;;;;;;;7.90;81.33;99057.84;5074893;28;20028;-61
2021/05/25 07:12:02;;;;;;;1.30;1.20;;;;;;;7.74;81.60;99060.13;5074250;28;20041;-59
2021/05/25 07:14:29;;;;;;;2.42;1.20;;;;;;;7.65;82.18;99060.69;5074555;28;20086;-59
2021/05/25 07:16:54;;;;;;;2.97;1.40;;;;;;;7.93;80.47;99063.53;5073865;28;20064;-59
2021/05/25 07:19:19;;;;;;;1.33;1.20;;;;;;;7.85;81.50;99071.88;5071117;28;20067;-59
2021/05/25 07:21:45;;;;;;;1.08;1.00;;;;;;;8.16;79.89;99072.63;5074268;28;20060;-59
2021/05/25 07:24:10;;;;;;;1.38;1.27;;;;;;;8.17;80.99;99074.25;5074281;28;20513;-59
2021/05/25 07:26:36;;;;;;;1.67;1.58;;;;;;;9.86;75.59;99073.25;5073982;28;20025;-59
2021/05/25 07:29:01;;;;;;;2.60;1.50;;;;;;;10.39;73.09;99068.50;5074217;28;20047;-59
2021/05/25 07:31:27;;;;;;;1.45;1.20;;;;;;;11.41;68.45;99069.81;5074049;28;20032;-59
2021/05/25 07:33:52;;;;;;;1.42;1.33;;;;;;;10.55;71.94;99072.19;5073913;28;20385;-59
2021/05/25 07:36:18;;;;;;;1.13;1.10;;;;;;;12.62;64.52;99073.03;5073774;28;20032;-59
2021/05/25 07:38:45;;;;;;;1.25;1.15;;;;;;;15.13;56.75;99075.31;5056243;28;20016;-59
2021/05/25 07:41:11;;;;;;;1.98;1.02;;;;;;;13.86;57.60;99067.06;5073375;28;20037;-59
2021/05/25 07:43:36;;;;;;;1.05;1.05;;;;;;;12.54;62.13;99084.28;5074144;28;20027;-59
2021/05/25 07:46:02;;;;;;;4.50;1.00;;;;;;;13.98;58.81;99083.78;5055706;28;20067;-61
2021/05/25 07:48:27;;;;;;;1.45;0.90;;;;;;;12.34;63.62;99093.00;5073922;28;20021;-60
2021/05/25 07:50:53;;;;;;;1.25;0.80;;;;;;;11.45;66.48;99089.72;5073151;28;20059;-60
2021/05/25 07:53:18;;;;;;;2.25;1.00;;;;;;;10.34;70.73;99093.34;5073746;28;20020;-60
2021/05/25 07:55:44;;;;;;;3.05;1.10;;;;;;;10.51;69.45;99093.34;5073312;28;20075;-60
2021/05/25 07:58:09;;;;;;;1.77;1.20;;;;;;;12.67;64.90;99094.56;5073687;28;20020;-60
2021/05/25 08:00:35;;;;;;;1.38;1.00;;;;;;;12.21;64.95;99088.88;5073201;28;20082;-61
2021/05/25 08:03:00;;;;;;;4.03;1.17;;;;;;;11.24;67.81;99093.25;5056005;28;20039;-59
2021/05/25 08:05:28;;;;;;;1.40;1.38;;;;;;;10.82;69.25;99098.31;5073147;28;20044;-60
2021/05/25 08:07:54;;;;;;;0.98;0.93;;;;;;;10.63;71.84;99095.09;5056402;28;20028;-60
2021/05/25 08:10:19;;;;;;;1.35;1.00;;;;;;;10.10;71.12;99105.22;5055117;28;20073;-60
2021/05/25 08:12:45;;;;;;;1.95;1.00;;;;;;;9.90;72.16;99101.13;5073465;28;20021;-60
2021/05/25 08:15:12;;;;;;;1.08;0.98;;;;;;;9.54;73.75;99109.59;5072998;28;20023;-61
2021/05/25 08:20:18;;;;;;;1.65;1.23;;;;;;;9.11;77.08;99106.31;5057142;28;20040;-60
2021/05/25 08:22:49;;;;;;;1.20;1.10;;;;;;;10.04;73.37;99117.72;5073375;28;20099;-61
2021/05/25 08:25:15;;;;;;;1.85;1.40;;;;;;;11.19;70.73;99115.44;5055574;28;20027;-61
2021/05/25 08:27:41;;;;;;;2.08;1.33;;;;;;;10.99;70.20;99112.50;5073225;28;20028;-60
2021/05/25 08:30:08;;;;;;;3.60;1.40;;;;;;;10.15;72.61;99110.66;5054836;28;20024;-60
2021/05/25 08:32:33;;;;;;;1.70;1.17;;;;;;;9.20;76.31;99115.59;5073207;28;20435;-60
2021/05/25 08:34:59;;;;;;;1.45;1.10;;;;;;;9.10;77.80;99120.72;5073087;28;20024;-60
2021/05/25 08:37:25;;;;;;;0.90;0.90;;;;;;;8.83;78.78;99120.41;5072661;28;20032;-60
2021/05/25 08:39:50;;;;;;;1.90;1.33;;;;;;;8.52;80.39;99135.75;5072951;28;20081;-60
2021/05/25 08:42:15;;;;;;;1.70;1.30;;;;;;;8.68;79.51;99134.25;5072572;28;20036;-60
2021/05/25 08:44:41;;;;;;;2.15;1.23;;;;;;;9.50;77.49;99142.13;5055157;28;20064;-61
2021/05/25 08:47:07;;;;;;;1.23;1.10;;;;;;;10.33;72.37;99164.06;5072498;28;20029;-60
2021/05/25 08:49:34;;;;;;;3.13;1.13;;;;;;;10.82;70.89;99168.84;5072742;28;20373;-61
2021/05/25 08:52:00;;;;;;;2.55;1.15;;;;;;;10.88;68.54;99157.13;5054574;28;20486;-61
2021/05/25 08:54:25;;;;;;;1.10;1.00;;;;;;;10.74;70.08;99169.25;5072975;28;20120;-60
2021/05/25 08:56:51;;;;;;;1.05;1.02;;;;;;;11.12;67.63;99167.66;5072336;28;20124;-60
2021/05/25 08:59:16;;;;;;;1.13;0.88;;;;;;;10.84;68.64;99172.09;5072457;28;20052;-60
2021/05/25 09:01:42;;;;;;;0.82;0.82;;;;;;;10.92;70.14;99173.53;5054399;28;20032;-59
2021/05/25 09:04:10;;;;;;;1.27;0.68;;;;;;;10.52;69.96;99182.56;5057926;28;20424;-60
2021/05/25 09:06:46;;;;;;;1.27;0.90;;;;;;;10.74;68.95;99183.47;5058999;28;20485;-60
2021/05/25 09:09:13;;;;;;;0.65;0.65;;;;;;;10.36;69.56;99187.69;5076719;28;20037;-60
2021/05/25 09:12:02;;;;;;;2.00;1.00;;;;;;;10.17;69.59;99182.75;5073074;28;20043;-59
2021/05/25 09:14:28;;;;;;;0.82;0.82;;;;;;;10.11;69.25;99200.59;5077004;28;20446;-60
2021/05/25 09:17:22;;;;;;;1.48;0.90;;;;;;;9.91;69.92;99201.03;5058349;28;20041;-60
2021/05/25 09:19:48;;;;;;;0.55;0.55;;;;;;;9.78;70.24;99199.41;5076720;28;20033;-59
2021/05/25 09:22:33;;;;;;;0.90;0.90;;;;;;;9.91;69.42;99209.06;5075989;28;20097;-60
2021/05/25 09:25:04;;;;;;;1.13;0.80;;;;;;;9.97;69.21;99213.44;5076664;28;20103;-60
2021/05/25 09:27:45;;;;;;;0.50;0.50;;;;;;;9.67;67.74;99213.66;5076248;28;20116;-59
2021/05/25 09:30:17;;;;;;;1.75;0.65;;;;;;;9.63;68.24;99221.31;5076157;28;20029;-59
2021/05/25 09:32:48;;;;;;;0.95;0.70;;;;;;;9.50;68.46;99221.59;5058378;28;20024;-60
2021/05/25 09:35:18;;;;;;;0.82;0.80;;;;;;;9.75;67.97;99229.34;5075935;28;20032;-59
2021/05/25 09:37:45;;;;;;;0.65;0.65;;;;;;;9.63;68.10;99226.69;5076247;28;20078;-60
2021/05/25 09:40:11;;;;;;;3.08;1.20;;;;;;;9.82;67.37;99242.59;5057633;28;20029;-60
2021/05/25 09:42:36;;;;;;;0.60;0.60;;;;;;;9.48;68.75;99250.44;5076417;28;20037;-59
2021/05/25 09:45:11;;;;;;;0.60;0.60;;;;;;;9.40;68.49;99245.47;5075837;28;20466;-60
2021/05/25 09:47:38;;;;;;;0.80;0.80;;;;;;;9.70;67.73;99243.44;5076459;28;20374;-59
2021/05/25 09:50:05;;;;;;;2.20;0.70;;;;;;;9.95;66.96;99242.31;5075785;28;20109;-59
2021/05/25 09:52:31;;;;;;;1.45;0.70;;;;;;;10.01;65.92;99233.34;5058433;28;20151;-59
2021/05/25 09:55:07;;;;;;;0.80;0.80;;;;;;;10.04;63.79;99254.28;5058143;28;20017;-60
2021/05/25 09:57:59;;;;;;;0.60;0.60;;;;;;;10.24;62.31;99253.06;5075531;28;20040;-59
2021/05/25 10:00:33;;;;;;;0.75;0.75;;;;;;;10.03;63.05;99258.00;5053121;28;20040;-60
2021/05/25 10:03:08;;;;;;;0.70;0.70;;;;;;;10.28;63.81;99240.81;5076137;28;20042;-60
2021/05/25 10:05:33;;;;;;;3.60;1.20;;;;;;;9.96;63.48;99268.06;5075490;28;20038;-59
2021/05/25 10:08:00;;;;;;;7.95;1.23;;;;;;;9.75;64.09;99272.16;5057990;28;20028;-60
2021/05/25 10:10:29;;;;;;;175.77;13.18;;;;;;;9.77;64.56;99279.97;5075314;28;20071;-61
2021/05/25 10:12:55;;;;;;;23.00;3.58;;;;;;;9.62;64.88;99283.13;5041727;28;20064;-60
2021/05/25 10:15:23;;;;;;;251.98;15.32;;;;;;;9.97;63.96;99283.06;5056910;28;20068;-59
2021/05/25 10:20:23;;;;;;;40.28;4.68;;;;;;;10.19;63.41;99287.78;5075114;28;20056;-59
2021/05/25 10:22:48;;;;;;;53.00;3.78;;;;;;;10.20;64.33;99286.72;5075470;28;20348;-59
2021/05/25 10:25:15;;;;;;;3.33;1.50;;;;;;;10.10;63.48;99284.66;5075076;28;20505;-59
2021/05/25 10:27:42;;;;;;;19.75;1.77;;;;;;;10.08;65.35;99292.94;5057921;28;20424;-59
2021/05/25 10:30:25;;;;;;;68.30;5.15;;;;;;;9.83;66.87;99295.06;5057126;28;20028;-60
2021/05/25 10:32:52;;;;;;;107.65;8.95;;;;;;;9.53;68.44;99297.91;5075368;28;20032;-59
2021/05/25 10:35:19;;;;;;;14.73;2.35;;;;;;;9.60;68.28;99303.94;5056907;28;20253;-59
2021/05/25 10:38:04;;;;;;;13.38;2.00;;;;;;;9.68;67.34;99304.44;5075209;28;20048;-60
2021/05/25 10:40:50;;;;;;;2.65;1.63;;;;;;;9.98;66.70;99292.72;5074957;28;20094;-59
2021/05/25 10:43:34;;;;;;;334.35;22.63;;;;;;;10.44;65.54;99300.88;5075029;28;20097;-59
2021/05/25 10:46:13;;;;;;;3.35;2.05;;;;;;;10.58;64.97;99297.66;5074637;28;20032;-59
2021/05/25 10:51:51;;;;;;;8.10;2.17;;;;;;;10.58;64.91;99303.03;5074577;28;20048;-59
2021/05/25 10:54:25;;;;;;;6.90;1.90;;;;;;;10.92;64.27;99305.72;5074880;28;20479;-59
2021/05/25 10:56:51;;;;;;;6.50;1.75;;;;;;;10.93;63.70;99306.53;5074532;28;20040;-59
2021/05/25 10:59:18;;;;;;;3.03;1.65;;;;;;;11.10;63.09;99306.56;5074898;28;20027;-59
2021/05/25 11:01:44;;;;;;;3.55;1.90;;;;;;;10.74;63.81;99305.97;5074431;28;20064;-59
2021/05/25 11:04:12;;;;;;;510.17;35.50;;;;;;;10.95;63.51;99302.56;5056943;28;20024;-59
2021/05/25 11:06:38;;;;;;;8.95;2.30;;;;;;;10.69;62.29;99308.56;5074187;28;20398;-58
2021/05/25 11:09:23;;;;;;;30.83;3.13;;;;;;;10.58;64.11;99327.16;5071447;28;20107;-61
2021/05/25 11:12:27;;;;;;;4.20;1.70;;;;;;;10.59;63.60;99322.59;5074207;28;20039;-59
2021/05/25 11:15:14;;;;;;;227.23;13.00;;;;;;;10.63;64.69;99325.59;4973632;28;20038;-61
2021/05/25 11:17:39;;;;;;;5.75;2.40;;;;;;;10.66;65.73;99309.84;4973164;28;20629;-59
2021/05/25 11:20:53;;;;;;;32.08;3.70;;;;;;;10.53;63.29;99308.28;5022412;28;20036;-59
2021/05/25 11:23:41;;;;;;;6.97;1.90;;;;;;;10.58;63.99;99313.75;5054392;28;20029;-59
2021/05/25 11:26:06;;;;;;;12.75;2.40;;;;;;;10.88;63.95;99323.34;5053172;28;20025;-59
2021/05/25 11:29:09;;;;;;;4.35;1.88;;;;;;;10.95;62.07;99318.66;5054232;28;20402;-60
2021/05/25 11:31:38;;;;;;;661.40;48.88;;;;;;;11.27;61.32;99307.38;5053773;28;20094;-59
2021/05/25 11:34:04;;;;;;;66.82;5.80;;;;;;;11.54;60.88;99309.38;5052818;28;20063;-59
2021/05/25 11:36:29;;;;;;;7.07;1.92;;;;;;;11.54;59.15;99296.78;5053755;28;20033;-59
2021/05/25 11:38:55;;;;;;;5.43;1.70;;;;;;;11.79;59.03;99300.88;5052709;28;20020;-59
2021/05/25 11:41:20;;;;;;;22.90;3.00;;;;;;;12.35;56.89;99298.06;5053658;28;20037;-60
2021/05/25 11:43:46;;;;;;;3.90;1.80;;;;;;;12.17;57.43;99285.78;5052839;28;20032;-60
2021/05/25 11:46:11;;;;;;;25.45;2.97;;;;;;;12.42;55.37;99293.31;5052240;28;20037;-61
2021/05/25 11:48:37;;;;;;;72.32;5.57;;;;;;;12.80;53.30;99299.59;5053956;28;20025;-60
2021/05/25 11:51:13;;;;;;;15.45;2.17;;;;;;;13.52;52.51;99299.09;5053405;28;20044;-59